sensor_id;sensor_type;location;lat;lon;timestamp;P1;durP1;ratioP1;P2;durP2;ratioP2
22829;SDS011;11581;51.250;6.778;2023-04-06T00:00:06;8.48;;;4.45;;
22829;SDS011;11581;51.250;6.778;2023-04-06T00:02:34;7.80;;;3.95;;
22829;SDS011;11581;51.250;6.778;2023-04-06T00:05:01;6.93;;;3.88;;
22829;SDS011;11581;51.250;6.778;2023-04-06T00:07:28;6.60;;;3.95;;
22829;SDS011;11581;51.250;6.778;2023-04-06T00:09:55;6.82;;;4.70;;
22829;SDS011;11581;51.250;6.778;2023-04-06T00:12:21;9.18;;;4.10;;
22829;SDS011;11581;51.250;6.778;2023-04-06T00:14:48;8.55;;;4.55;;
22829;SDS011;11581;51.250;6.778;2023-04-06T00:17:14;12.68;;;4.30;;
22829;SDS011;11581;51.250;6.778;2023-04-06T00:19:41;10.20;;;4.65;;
22829;SDS011;11581;51.250;6.778;2023-04-06T00:22:07;6.80;;;4.60;;
22829;SDS011;11581;51.250;6.778;2023-04-06T00:24:34;10.18;;;4.90;;
22829;SDS011;11581;51.250;6.778;2023-04-06T00:27:00;9.40;;;4.72;;
22829;SDS011;11581;51.250;6.778;2023-04-06T00:29:27;8.32;;;4.45;;
22829;SDS011;11581;51.250;6.778;2023-04-06T00:31:53;6.90;;;4.18;;
22829;SDS011;11581;51.250;6.778;2023-04-06T00:34:20;8.75;;;5.03;;
22829;SDS011;11581;51.250;6.778;2023-04-06T00:36:47;10.00;;;4.82;;
22829;SDS011;11581;51.250;6.778;2023-04-06T00:39:13;7.80;;;4.60;;
22829;SDS011;11581;51.250;6.778;2023-04-06T00:41:41;7.15;;;4.47;;
22829;SDS011;11581;51.250;6.778;2023-04-06T00:44:13;8.07;;;4.68;;
22829;SDS011;11581;51.250;6.778;2023-04-06T00:46:40;9.05;;;4.15;;
22829;SDS011;11581;51.250;6.778;2023-04-06T00:49:06;7.38;;;4.72;;
22829;SDS011;11581;51.250;6.778;2023-04-06T00:51:33;8.63;;;4.50;;
22829;SDS011;11581;51.250;6.778;2023-04-06T00:54:00;9.18;;;5.05;;
22829;SDS011;11581;51.250;6.778;2023-04-06T00:56:29;7.63;;;4.35;;
22829;SDS011;11581;51.250;6.778;2023-04-06T00:58:55;8.25;;;5.13;;
22829;SDS011;11581;51.250;6.778;2023-04-06T01:01:23;7.35;;;4.40;;
22829;SDS011;11581;51.250;6.778;2023-04-06T01:03:52;7.25;;;4.43;;
22829;SDS011;11581;51.250;6.778;2023-04-06T01:06:20;8.05;;;5.30;;
22829;SDS011;11581;51.250;6.778;2023-04-06T01:08:55;7.60;;;4.80;;
22829;SDS011;11581;51.250;6.778;2023-04-06T01:11:24;7.70;;;4.70;;
22829;SDS011;11581;51.250;6.778;2023-04-06T01:13:52;7.80;;;4.40;;
22829;SDS011;11581;51.250;6.778;2023-04-06T01:16:25;7.43;;;4.68;;
22829;SDS011;11581;51.250;6.778;2023-04-06T01:19:17;8.38;;;5.03;;
22829;SDS011;11581;51.250;6.778;2023-04-06T01:21:49;8.85;;;5.18;;
22829;SDS011;11581;51.250;6.778;2023-04-06T01:24:30;9.05;;;4.85;;
22829;SDS011;11581;51.250;6.778;2023-04-06T01:27:03;7.38;;;4.45;;
22829;SDS011;11581;51.250;6.778;2023-04-06T01:30:05;8.32;;;5.00;;
22829;SDS011;11581;51.250;6.778;2023-04-06T01:32:52;9.02;;;4.78;;
22829;SDS011;11581;51.250;6.778;2023-04-06T01:35:33;8.65;;;4.90;;
22829;SDS011;11581;51.250;6.778;2023-04-06T01:38:11;8.43;;;5.03;;
22829;SDS011;11581;51.250;6.778;2023-04-06T01:40:38;8.63;;;5.22;;
22829;SDS011;11581;51.250;6.778;2023-04-06T01:43:05;8.38;;;4.55;;
22829;SDS011;11581;51.250;6.778;2023-04-06T01:45:38;9.05;;;4.80;;
22829;SDS011;11581;51.250;6.778;2023-04-06T01:48:18;7.65;;;4.68;;
22829;SDS011;11581;51.250;6.778;2023-04-06T01:50:45;11.23;;;4.32;;
22829;SDS011;11581;51.250;6.778;2023-04-06T01:53:16;9.32;;;5.05;;
22829;SDS011;11581;51.250;6.778;2023-04-06T01:55:44;10.48;;;5.43;;
22829;SDS011;11581;51.250;6.778;2023-04-06T01:58:33;10.70;;;5.60;;
22829;SDS011;11581;51.250;6.778;2023-04-06T02:01:01;9.38;;;4.88;;
22829;SDS011;11581;51.250;6.778;2023-04-06T02:03:32;13.32;;;5.50;;
22829;SDS011;11581;51.250;6.778;2023-04-06T02:06:05;10.73;;;5.60;;
22829;SDS011;11581;51.250;6.778;2023-04-06T02:08:36;11.38;;;5.60;;
22829;SDS011;11581;51.250;6.778;2023-04-06T02:11:03;9.40;;;5.35;;
22829;SDS011;11581;51.250;6.778;2023-04-06T02:13:36;13.02;;;5.85;;
22829;SDS011;11581;51.250;6.778;2023-04-06T02:16:02;8.07;;;5.28;;
22829;SDS011;11581;51.250;6.778;2023-04-06T02:18:30;9.75;;;6.00;;
22829;SDS011;11581;51.250;6.778;2023-04-06T02:20:57;9.45;;;5.38;;
22829;SDS011;11581;51.250;6.778;2023-04-06T02:23:23;9.20;;;4.95;;
22829;SDS011;11581;51.250;6.778;2023-04-06T02:25:50;8.93;;;5.78;;
22829;SDS011;11581;51.250;6.778;2023-04-06T02:28:16;10.93;;;5.32;;
22829;SDS011;11581;51.250;6.778;2023-04-06T02:30:43;9.38;;;5.68;;
22829;SDS011;11581;51.250;6.778;2023-04-06T02:33:10;8.65;;;5.30;;
22829;SDS011;11581;51.250;6.778;2023-04-06T02:35:44;8.32;;;5.10;;
22829;SDS011;11581;51.250;6.778;2023-04-06T02:38:10;11.48;;;5.47;;
22829;SDS011;11581;51.250;6.778;2023-04-06T02:40:37;7.63;;;4.53;;
22829;SDS011;11581;51.250;6.778;2023-04-06T02:43:24;8.07;;;5.03;;
22829;SDS011;11581;51.250;6.778;2023-04-06T02:45:59;9.10;;;5.20;;
22829;SDS011;11581;51.250;6.778;2023-04-06T02:48:25;8.32;;;5.40;;
22829;SDS011;11581;51.250;6.778;2023-04-06T02:50:52;6.47;;;4.13;;
22829;SDS011;11581;51.250;6.778;2023-04-06T02:53:18;8.18;;;4.47;;
22829;SDS011;11581;51.250;6.778;2023-04-06T02:55:45;7.35;;;4.30;;
22829;SDS011;11581;51.250;6.778;2023-04-06T02:58:12;6.85;;;4.43;;
22829;SDS011;11581;51.250;6.778;2023-04-06T03:00:45;10.75;;;5.55;;
22829;SDS011;11581;51.250;6.778;2023-04-06T03:03:12;8.95;;;5.10;;
22829;SDS011;11581;51.250;6.778;2023-04-06T03:05:40;9.00;;;4.68;;
22829;SDS011;11581;51.250;6.778;2023-04-06T03:08:07;7.60;;;4.22;;
22829;SDS011;11581;51.250;6.778;2023-04-06T03:13:18;6.00;;;4.13;;
22829;SDS011;11581;51.250;6.778;2023-04-06T03:15:50;6.50;;;4.20;;
22829;SDS011;11581;51.250;6.778;2023-04-06T03:18:22;10.07;;;4.57;;
22829;SDS011;11581;51.250;6.778;2023-04-06T03:20:52;7.80;;;4.35;;
22829;SDS011;11581;51.250;6.778;2023-04-06T03:23:21;6.47;;;4.00;;
22829;SDS011;11581;51.250;6.778;2023-04-06T03:25:52;9.82;;;4.50;;
22829;SDS011;11581;51.250;6.778;2023-04-06T03:28:20;9.75;;;4.15;;
22829;SDS011;11581;51.250;6.778;2023-04-06T03:30:53;6.63;;;3.85;;
22829;SDS011;11581;51.250;6.778;2023-04-06T03:33:39;8.85;;;4.22;;
22829;SDS011;11581;51.250;6.778;2023-04-06T03:36:08;7.13;;;4.20;;
22829;SDS011;11581;51.250;6.778;2023-04-06T03:38:39;6.30;;;3.83;;
22829;SDS011;11581;51.250;6.778;2023-04-06T03:41:10;5.47;;;3.85;;
22829;SDS011;11581;51.250;6.778;2023-04-06T03:43:38;9.90;;;4.53;;
22829;SDS011;11581;51.250;6.778;2023-04-06T03:46:04;6.40;;;4.22;;
22829;SDS011;11581;51.250;6.778;2023-04-06T03:48:31;6.55;;;3.50;;
22829;SDS011;11581;51.250;6.778;2023-04-06T03:51:02;9.52;;;4.60;;
22829;SDS011;11581;51.250;6.778;2023-04-06T03:53:28;7.13;;;3.97;;
22829;SDS011;11581;51.250;6.778;2023-04-06T03:55:55;6.43;;;4.10;;
22829;SDS011;11581;51.250;6.778;2023-04-06T03:58:22;8.10;;;4.70;;
22829;SDS011;11581;51.250;6.778;2023-04-06T04:00:48;7.20;;;4.05;;
22829;SDS011;11581;51.250;6.778;2023-04-06T04:03:15;6.30;;;3.70;;
22829;SDS011;11581;51.250;6.778;2023-04-06T04:05:42;8.93;;;4.00;;
22829;SDS011;11581;51.250;6.778;2023-04-06T04:08:10;7.03;;;4.05;;
22829;SDS011;11581;51.250;6.778;2023-04-06T04:10:37;7.13;;;3.95;;
22829;SDS011;11581;51.250;6.778;2023-04-06T04:13:03;7.90;;;4.32;;
22829;SDS011;11581;51.250;6.778;2023-04-06T04:15:30;7.30;;;3.97;;
22829;SDS011;11581;51.250;6.778;2023-04-06T04:17:57;7.72;;;4.45;;
22829;SDS011;11581;51.250;6.778;2023-04-06T04:20:23;6.82;;;4.18;;
22829;SDS011;11581;51.250;6.778;2023-04-06T04:22:50;7.97;;;4.30;;
22829;SDS011;11581;51.250;6.778;2023-04-06T04:25:16;9.23;;;4.32;;
22829;SDS011;11581;51.250;6.778;2023-04-06T04:27:47;8.38;;;4.50;;
22829;SDS011;11581;51.250;6.778;2023-04-06T04:30:13;6.93;;;4.35;;
22829;SDS011;11581;51.250;6.778;2023-04-06T04:32:40;8.15;;;4.40;;
22829;SDS011;11581;51.250;6.778;2023-04-06T04:35:08;8.73;;;4.97;;
22829;SDS011;11581;51.250;6.778;2023-04-06T04:37:38;7.25;;;3.78;;
22829;SDS011;11581;51.250;6.778;2023-04-06T04:40:07;7.45;;;4.20;;
22829;SDS011;11581;51.250;6.778;2023-04-06T04:42:44;9.30;;;4.03;;
22829;SDS011;11581;51.250;6.778;2023-04-06T04:47:45;8.93;;;3.92;;
22829;SDS011;11581;51.250;6.778;2023-04-06T04:50:14;9.57;;;4.25;;
22829;SDS011;11581;51.250;6.778;2023-04-06T04:52:44;7.00;;;3.95;;
22829;SDS011;11581;51.250;6.778;2023-04-06T04:57:47;7.00;;;3.90;;
22829;SDS011;11581;51.250;6.778;2023-04-06T05:00:16;6.25;;;3.88;;
22829;SDS011;11581;51.250;6.778;2023-04-06T05:02:44;6.07;;;3.47;;
22829;SDS011;11581;51.250;6.778;2023-04-06T05:05:18;7.70;;;3.97;;
22829;SDS011;11581;51.250;6.778;2023-04-06T05:07:45;5.78;;;3.70;;
22829;SDS011;11581;51.250;6.778;2023-04-06T05:10:22;5.53;;;3.42;;
22829;SDS011;11581;51.250;6.778;2023-04-06T05:12:54;6.80;;;3.92;;
22829;SDS011;11581;51.250;6.778;2023-04-06T05:15:20;6.95;;;3.92;;
22829;SDS011;11581;51.250;6.778;2023-04-06T05:17:51;6.85;;;3.90;;
22829;SDS011;11581;51.250;6.778;2023-04-06T05:20:22;5.72;;;3.67;;
22829;SDS011;11581;51.250;6.778;2023-04-06T05:22:50;8.73;;;4.00;;
22829;SDS011;11581;51.250;6.778;2023-04-06T05:25:17;7.22;;;3.60;;
22829;SDS011;11581;51.250;6.778;2023-04-06T05:27:45;8.23;;;4.00;;
22829;SDS011;11581;51.250;6.778;2023-04-06T05:30:44;6.25;;;3.45;;
22829;SDS011;11581;51.250;6.778;2023-04-06T05:33:12;6.32;;;4.00;;
22829;SDS011;11581;51.250;6.778;2023-04-06T05:35:59;9.93;;;4.07;;
22829;SDS011;11581;51.250;6.778;2023-04-06T05:38:26;6.72;;;4.20;;
22829;SDS011;11581;51.250;6.778;2023-04-06T05:40:56;8.30;;;4.20;;
22829;SDS011;11581;51.250;6.778;2023-04-06T05:43:26;6.82;;;3.45;;
22829;SDS011;11581;51.250;6.778;2023-04-06T05:45:55;7.78;;;4.10;;
22829;SDS011;11581;51.250;6.778;2023-04-06T05:48:22;5.60;;;3.80;;
22829;SDS011;11581;51.250;6.778;2023-04-06T05:50:49;6.10;;;3.45;;
22829;SDS011;11581;51.250;6.778;2023-04-06T05:53:19;9.60;;;4.20;;
22829;SDS011;11581;51.250;6.778;2023-04-06T05:55:52;6.78;;;3.92;;
22829;SDS011;11581;51.250;6.778;2023-04-06T05:58:20;7.07;;;3.58;;
22829;SDS011;11581;51.250;6.778;2023-04-06T06:00:49;6.43;;;3.88;;
22829;SDS011;11581;51.250;6.778;2023-04-06T06:03:18;5.43;;;3.63;;
22829;SDS011;11581;51.250;6.778;2023-04-06T06:05:50;7.55;;;3.92;;
22829;SDS011;11581;51.250;6.778;2023-04-06T06:08:24;9.02;;;3.58;;
22829;SDS011;11581;51.250;6.778;2023-04-06T06:10:51;7.47;;;3.95;;
22829;SDS011;11581;51.250;6.778;2023-04-06T06:13:21;6.32;;;3.50;;
22829;SDS011;11581;51.250;6.778;2023-04-06T06:15:49;6.78;;;3.90;;
22829;SDS011;11581;51.250;6.778;2023-04-06T06:18:17;7.55;;;4.35;;
22829;SDS011;11581;51.250;6.778;2023-04-06T06:20:46;8.23;;;3.70;;
22829;SDS011;11581;51.250;6.778;2023-04-06T06:23:13;9.65;;;3.58;;
22829;SDS011;11581;51.250;6.778;2023-04-06T06:25:40;8.70;;;3.70;;
22829;SDS011;11581;51.250;6.778;2023-04-06T06:28:08;7.05;;;3.67;;
22829;SDS011;11581;51.250;6.778;2023-04-06T06:30:35;5.82;;;3.53;;
22829;SDS011;11581;51.250;6.778;2023-04-06T06:33:01;7.85;;;3.47;;
22829;SDS011;11581;51.250;6.778;2023-04-06T06:35:29;8.18;;;3.70;;
22829;SDS011;11581;51.250;6.778;2023-04-06T06:37:59;5.30;;;3.38;;
22829;SDS011;11581;51.250;6.778;2023-04-06T06:40:26;6.20;;;3.80;;
22829;SDS011;11581;51.250;6.778;2023-04-06T06:42:54;7.18;;;3.85;;
22829;SDS011;11581;51.250;6.778;2023-04-06T06:45:32;6.15;;;3.60;;
22829;SDS011;11581;51.250;6.778;2023-04-06T06:47:58;5.97;;;3.45;;
22829;SDS011;11581;51.250;6.778;2023-04-06T06:50:25;6.03;;;3.67;;
22829;SDS011;11581;51.250;6.778;2023-04-06T06:52:52;6.47;;;3.97;;
22829;SDS011;11581;51.250;6.778;2023-04-06T06:55:18;5.47;;;3.70;;
22829;SDS011;11581;51.250;6.778;2023-04-06T06:57:45;7.72;;;3.65;;
22829;SDS011;11581;51.250;6.778;2023-04-06T07:00:13;5.88;;;3.35;;
22829;SDS011;11581;51.250;6.778;2023-04-06T07:02:41;10.07;;;4.00;;
22829;SDS011;11581;51.250;6.778;2023-04-06T07:05:08;6.50;;;3.78;;
22829;SDS011;11581;51.250;6.778;2023-04-06T07:07:35;6.95;;;4.00;;
22829;SDS011;11581;51.250;6.778;2023-04-06T07:10:01;6.15;;;3.72;;
22829;SDS011;11581;51.250;6.778;2023-04-06T07:12:28;7.35;;;3.60;;
22829;SDS011;11581;51.250;6.778;2023-04-06T07:14:55;8.27;;;3.70;;
22829;SDS011;11581;51.250;6.778;2023-04-06T07:17:21;7.90;;;4.13;;
22829;SDS011;11581;51.250;6.778;2023-04-06T07:19:48;8.15;;;3.97;;
22829;SDS011;11581;51.250;6.778;2023-04-06T07:22:14;7.38;;;4.10;;
22829;SDS011;11581;51.250;6.778;2023-04-06T07:24:41;6.90;;;3.67;;
22829;SDS011;11581;51.250;6.778;2023-04-06T07:27:08;8.80;;;4.57;;
22829;SDS011;11581;51.250;6.778;2023-04-06T07:29:34;6.63;;;3.85;;
22829;SDS011;11581;51.250;6.778;2023-04-06T07:32:01;6.05;;;4.22;;
22829;SDS011;11581;51.250;6.778;2023-04-06T07:34:28;7.32;;;4.20;;
22829;SDS011;11581;51.250;6.778;2023-04-06T07:36:55;6.90;;;3.97;;
22829;SDS011;11581;51.250;6.778;2023-04-06T07:39:22;19.35;;;4.57;;
22829;SDS011;11581;51.250;6.778;2023-04-06T07:41:48;6.63;;;4.35;;
22829;SDS011;11581;51.250;6.778;2023-04-06T07:44:15;7.32;;;4.10;;
22829;SDS011;11581;51.250;6.778;2023-04-06T07:46:42;7.82;;;4.43;;
22829;SDS011;11581;51.250;6.778;2023-04-06T07:49:08;9.98;;;4.78;;
22829;SDS011;11581;51.250;6.778;2023-04-06T07:51:36;6.38;;;4.40;;
22829;SDS011;11581;51.250;6.778;2023-04-06T07:54:03;6.68;;;4.10;;
22829;SDS011;11581;51.250;6.778;2023-04-06T07:56:30;7.05;;;4.40;;
22829;SDS011;11581;51.250;6.778;2023-04-06T07:58:57;7.78;;;4.95;;
22829;SDS011;11581;51.250;6.778;2023-04-06T08:01:24;7.63;;;4.40;;
22829;SDS011;11581;51.250;6.778;2023-04-06T08:03:51;7.15;;;4.47;;
22829;SDS011;11581;51.250;6.778;2023-04-06T08:06:17;13.23;;;4.78;;
22829;SDS011;11581;51.250;6.778;2023-04-06T08:08:44;6.60;;;4.40;;
22829;SDS011;11581;51.250;6.778;2023-04-06T08:11:11;6.68;;;4.63;;
22829;SDS011;11581;51.250;6.778;2023-04-06T08:13:37;7.90;;;4.93;;
22829;SDS011;11581;51.250;6.778;2023-04-06T08:16:04;7.25;;;4.97;;
22829;SDS011;11581;51.250;6.778;2023-04-06T08:18:31;8.32;;;5.30;;
22829;SDS011;11581;51.250;6.778;2023-04-06T08:20:58;9.20;;;5.35;;
22829;SDS011;11581;51.250;6.778;2023-04-06T08:23:25;7.65;;;4.68;;
22829;SDS011;11581;51.250;6.778;2023-04-06T08:25:51;8.00;;;4.43;;
22829;SDS011;11581;51.250;6.778;2023-04-06T08:28:19;8.38;;;5.00;;
22829;SDS011;11581;51.250;6.778;2023-04-06T08:30:47;7.03;;;4.60;;
22829;SDS011;11581;51.250;6.778;2023-04-06T08:33:14;9.82;;;4.68;;
22829;SDS011;11581;51.250;6.778;2023-04-06T08:35:40;8.60;;;5.07;;
22829;SDS011;11581;51.250;6.778;2023-04-06T08:38:07;10.27;;;5.45;;
22829;SDS011;11581;51.250;6.778;2023-04-06T08:40:39;6.75;;;4.93;;
22829;SDS011;11581;51.250;6.778;2023-04-06T08:43:12;9.57;;;4.40;;
22829;SDS011;11581;51.250;6.778;2023-04-06T08:45:40;7.65;;;4.65;;
22829;SDS011;11581;51.250;6.778;2023-04-06T08:48:08;9.07;;;4.80;;
22829;SDS011;11581;51.250;6.778;2023-04-06T08:50:35;13.30;;;5.15;;
22829;SDS011;11581;51.250;6.778;2023-04-06T08:53:02;9.60;;;5.20;;
22829;SDS011;11581;51.250;6.778;2023-04-06T08:55:28;7.70;;;4.65;;
22829;SDS011;11581;51.250;6.778;2023-04-06T08:57:56;7.50;;;4.63;;
22829;SDS011;11581;51.250;6.778;2023-04-06T09:00:22;8.70;;;4.85;;
22829;SDS011;11581;51.250;6.778;2023-04-06T09:02:51;11.35;;;5.85;;
22829;SDS011;11581;51.250;6.778;2023-04-06T09:05:21;9.38;;;6.22;;
22829;SDS011;11581;51.250;6.778;2023-04-06T09:07:48;9.93;;;5.55;;
22829;SDS011;11581;51.250;6.778;2023-04-06T09:10:14;11.52;;;6.68;;
22829;SDS011;11581;51.250;6.778;2023-04-06T09:12:43;17.88;;;6.65;;
22829;SDS011;11581;51.250;6.778;2023-04-06T09:15:20;9.70;;;6.60;;
22829;SDS011;11581;51.250;6.778;2023-04-06T09:17:47;9.73;;;6.45;;
22829;SDS011;11581;51.250;6.778;2023-04-06T09:20:14;10.23;;;6.20;;
22829;SDS011;11581;51.250;6.778;2023-04-06T09:22:42;13.07;;;6.28;;
22829;SDS011;11581;51.250;6.778;2023-04-06T09:25:09;12.65;;;7.00;;
22829;SDS011;11581;51.250;6.778;2023-04-06T09:27:44;11.70;;;6.38;;
22829;SDS011;11581;51.250;6.778;2023-04-06T09:30:11;11.88;;;7.35;;
22829;SDS011;11581;51.250;6.778;2023-04-06T09:32:49;14.52;;;6.70;;
22829;SDS011;11581;51.250;6.778;2023-04-06T09:35:17;12.20;;;7.35;;
22829;SDS011;11581;51.250;6.778;2023-04-06T09:37:46;12.27;;;7.68;;
22829;SDS011;11581;51.250;6.778;2023-04-06T09:40:13;11.40;;;7.32;;
22829;SDS011;11581;51.250;6.778;2023-04-06T09:42:42;13.27;;;7.28;;
22829;SDS011;11581;51.250;6.778;2023-04-06T09:45:12;14.07;;;7.55;;
22829;SDS011;11581;51.250;6.778;2023-04-06T09:47:40;12.77;;;7.85;;
22829;SDS011;11581;51.250;6.778;2023-04-06T09:50:11;16.90;;;7.32;;
22829;SDS011;11581;51.250;6.778;2023-04-06T09:52:48;13.05;;;7.57;;
22829;SDS011;11581;51.250;6.778;2023-04-06T09:55:26;14.30;;;7.72;;
22829;SDS011;11581;51.250;6.778;2023-04-06T09:57:58;14.20;;;7.63;;
22829;SDS011;11581;51.250;6.778;2023-04-06T10:00:31;12.57;;;7.30;;
22829;SDS011;11581;51.250;6.778;2023-04-06T10:05:43;9.00;;;6.60;;
22829;SDS011;11581;51.250;6.778;2023-04-06T10:08:18;10.00;;;6.50;;
22829;SDS011;11581;51.250;6.778;2023-04-06T10:10:47;11.95;;;7.53;;
22829;SDS011;11581;51.250;6.778;2023-04-06T10:13:14;13.38;;;7.45;;
22829;SDS011;11581;51.250;6.778;2023-04-06T10:15:41;13.65;;;7.57;;
22829;SDS011;11581;51.250;6.778;2023-04-06T10:18:08;12.10;;;7.45;;
22829;SDS011;11581;51.250;6.778;2023-04-06T10:20:42;13.45;;;7.55;;
22829;SDS011;11581;51.250;6.778;2023-04-06T10:23:15;12.77;;;7.97;;
22829;SDS011;11581;51.250;6.778;2023-04-06T10:25:53;12.30;;;7.70;;
22829;SDS011;11581;51.250;6.778;2023-04-06T10:28:24;11.93;;;7.60;;
22829;SDS011;11581;51.250;6.778;2023-04-06T10:30:58;13.30;;;8.00;;
22829;SDS011;11581;51.250;6.778;2023-04-06T10:33:25;11.45;;;7.50;;
22829;SDS011;11581;51.250;6.778;2023-04-06T10:35:52;11.48;;;7.55;;
22829;SDS011;11581;51.250;6.778;2023-04-06T10:38:20;12.35;;;7.70;;
22829;SDS011;11581;51.250;6.778;2023-04-06T10:40:48;11.32;;;7.57;;
22829;SDS011;11581;51.250;6.778;2023-04-06T10:43:18;10.88;;;7.55;;
22829;SDS011;11581;51.250;6.778;2023-04-06T10:45:54;11.40;;;7.72;;
22829;SDS011;11581;51.250;6.778;2023-04-06T10:48:22;13.70;;;6.55;;
22829;SDS011;11581;51.250;6.778;2023-04-06T10:50:49;12.13;;;7.68;;
22829;SDS011;11581;51.250;6.778;2023-04-06T10:53:25;14.50;;;7.88;;
22829;SDS011;11581;51.250;6.778;2023-04-06T10:55:54;10.48;;;6.65;;
22829;SDS011;11581;51.250;6.778;2023-04-06T10:58:26;13.55;;;7.57;;
22829;SDS011;11581;51.250;6.778;2023-04-06T11:00:54;12.93;;;6.65;;
22829;SDS011;11581;51.250;6.778;2023-04-06T11:03:21;12.35;;;7.07;;
22829;SDS011;11581;51.250;6.778;2023-04-06T11:05:49;12.93;;;7.00;;
22829;SDS011;11581;51.250;6.778;2023-04-06T11:08:23;11.82;;;7.47;;
22829;SDS011;11581;51.250;6.778;2023-04-06T11:11:05;15.70;;;7.10;;
22829;SDS011;11581;51.250;6.778;2023-04-06T11:13:42;10.02;;;6.65;;
22829;SDS011;11581;51.250;6.778;2023-04-06T11:16:13;12.00;;;7.32;;
22829;SDS011;11581;51.250;6.778;2023-04-06T11:18:57;13.23;;;7.07;;
22829;SDS011;11581;51.250;6.778;2023-04-06T11:21:41;14.05;;;7.72;;
22829;SDS011;11581;51.250;6.778;2023-04-06T11:24:19;15.00;;;8.07;;
22829;SDS011;11581;51.250;6.778;2023-04-06T11:26:57;12.20;;;7.68;;
22829;SDS011;11581;51.250;6.778;2023-04-06T11:29:26;10.63;;;7.30;;
22829;SDS011;11581;51.250;6.778;2023-04-06T11:31:59;15.48;;;7.68;;
22829;SDS011;11581;51.250;6.778;2023-04-06T11:34:30;17.15;;;7.20;;
22829;SDS011;11581;51.250;6.778;2023-04-06T11:37:02;12.13;;;7.80;;
22829;SDS011;11581;51.250;6.778;2023-04-06T11:39:31;12.25;;;7.00;;
22829;SDS011;11581;51.250;6.778;2023-04-06T11:42:01;10.38;;;7.30;;
22829;SDS011;11581;51.250;6.778;2023-04-06T11:44:32;10.38;;;6.55;;
22829;SDS011;11581;51.250;6.778;2023-04-06T11:47:01;11.95;;;7.55;;
22829;SDS011;11581;51.250;6.778;2023-04-06T11:49:30;11.52;;;7.45;;
22829;SDS011;11581;51.250;6.778;2023-04-06T11:51:58;12.48;;;6.70;;
22829;SDS011;11581;51.250;6.778;2023-04-06T11:54:32;11.93;;;7.32;;
22829;SDS011;11581;51.250;6.778;2023-04-06T11:59:27;10.85;;;6.75;;
22829;SDS011;11581;51.250;6.778;2023-04-06T12:01:54;11.40;;;6.53;;
22829;SDS011;11581;51.250;6.778;2023-04-06T12:04:22;10.88;;;6.85;;
22829;SDS011;11581;51.250;6.778;2023-04-06T12:06:48;12.85;;;7.13;;
22829;SDS011;11581;51.250;6.778;2023-04-06T12:09:18;9.90;;;6.70;;
22829;SDS011;11581;51.250;6.778;2023-04-06T12:11:45;11.75;;;7.07;;
22829;SDS011;11581;51.250;6.778;2023-04-06T12:14:12;10.75;;;7.03;;
22829;SDS011;11581;51.250;6.778;2023-04-06T12:16:39;10.68;;;7.15;;
22829;SDS011;11581;51.250;6.778;2023-04-06T12:19:06;12.75;;;7.10;;
22829;SDS011;11581;51.250;6.778;2023-04-06T12:21:34;10.57;;;6.88;;
22829;SDS011;11581;51.250;6.778;2023-04-06T12:24:01;13.18;;;7.10;;
22829;SDS011;11581;51.250;6.778;2023-04-06T12:26:27;12.80;;;6.72;;
22829;SDS011;11581;51.250;6.778;2023-04-06T12:28:56;8.80;;;6.05;;
22829;SDS011;11581;51.250;6.778;2023-04-06T12:31:28;8.52;;;5.57;;
22829;SDS011;11581;51.250;6.778;2023-04-06T12:33:54;8.52;;;5.55;;
22829;SDS011;11581;51.250;6.778;2023-04-06T12:36:21;11.40;;;5.50;;
22829;SDS011;11581;51.250;6.778;2023-04-06T12:38:47;12.07;;;5.85;;
22829;SDS011;11581;51.250;6.778;2023-04-06T12:41:15;9.35;;;6.00;;
22829;SDS011;11581;51.250;6.778;2023-04-06T12:43:43;10.27;;;6.10;;
22829;SDS011;11581;51.250;6.778;2023-04-06T12:46:10;12.35;;;7.00;;
22829;SDS011;11581;51.250;6.778;2023-04-06T12:48:37;10.45;;;5.78;;
22829;SDS011;11581;51.250;6.778;2023-04-06T12:51:04;9.10;;;4.95;;
22829;SDS011;11581;51.250;6.778;2023-04-06T12:53:35;7.97;;;5.10;;
22829;SDS011;11581;51.250;6.778;2023-04-06T12:56:02;10.27;;;5.53;;
22829;SDS011;11581;51.250;6.778;2023-04-06T12:58:36;8.88;;;4.72;;
22829;SDS011;11581;51.250;6.778;2023-04-06T13:01:05;7.80;;;4.70;;
22829;SDS011;11581;51.250;6.778;2023-04-06T13:03:32;7.10;;;4.60;;
22829;SDS011;11581;51.250;6.778;2023-04-06T13:06:00;8.10;;;4.55;;
22829;SDS011;11581;51.250;6.778;2023-04-06T13:08:27;8.38;;;4.75;;
22829;SDS011;11581;51.250;6.778;2023-04-06T13:10:54;10.93;;;5.60;;
22829;SDS011;11581;51.250;6.778;2023-04-06T13:13:24;7.32;;;4.30;;
22829;SDS011;11581;51.250;6.778;2023-04-06T13:15:53;6.68;;;4.70;;
22829;SDS011;11581;51.250;6.778;2023-04-06T13:18:21;9.52;;;4.45;;
22829;SDS011;11581;51.250;6.778;2023-04-06T13:20:49;7.20;;;4.75;;
22829;SDS011;11581;51.250;6.778;2023-04-06T13:23:15;8.10;;;4.78;;
22829;SDS011;11581;51.250;6.778;2023-04-06T13:25:42;11.25;;;3.83;;
22829;SDS011;11581;51.250;6.778;2023-04-06T13:28:09;7.95;;;3.78;;
22829;SDS011;11581;51.250;6.778;2023-04-06T13:30:36;9.73;;;3.92;;
22829;SDS011;11581;51.250;6.778;2023-04-06T13:33:03;7.85;;;4.05;;
22829;SDS011;11581;51.250;6.778;2023-04-06T13:35:31;7.05;;;4.65;;
22829;SDS011;11581;51.250;6.778;2023-04-06T13:38:00;9.65;;;4.45;;
22829;SDS011;11581;51.250;6.778;2023-04-06T13:40:27;7.47;;;4.00;;
22829;SDS011;11581;51.250;6.778;2023-04-06T13:42:53;7.18;;;4.35;;
22829;SDS011;11581;51.250;6.778;2023-04-06T13:45:20;7.03;;;4.45;;
22829;SDS011;11581;51.250;6.778;2023-04-06T13:47:46;7.07;;;4.45;;
22829;SDS011;11581;51.250;6.778;2023-04-06T13:50:13;7.72;;;3.70;;
22829;SDS011;11581;51.250;6.778;2023-04-06T13:52:39;6.78;;;4.13;;
22829;SDS011;11581;51.250;6.778;2023-04-06T13:55:06;5.20;;;3.58;;
22829;SDS011;11581;51.250;6.778;2023-04-06T13:57:33;6.32;;;4.20;;
22829;SDS011;11581;51.250;6.778;2023-04-06T14:00:01;5.82;;;3.75;;
22829;SDS011;11581;51.250;6.778;2023-04-06T14:02:29;6.80;;;3.63;;
22829;SDS011;11581;51.250;6.778;2023-04-06T14:04:56;6.95;;;3.72;;
22829;SDS011;11581;51.250;6.778;2023-04-06T14:07:22;7.15;;;3.45;;
22829;SDS011;11581;51.250;6.778;2023-04-06T14:09:49;6.03;;;3.90;;
22829;SDS011;11581;51.250;6.778;2023-04-06T14:12:16;7.78;;;3.53;;
22829;SDS011;11581;51.250;6.778;2023-04-06T14:14:42;9.30;;;3.40;;
22829;SDS011;11581;51.250;6.778;2023-04-06T14:17:09;5.65;;;4.03;;
22829;SDS011;11581;51.250;6.778;2023-04-06T14:19:35;6.10;;;3.72;;
22829;SDS011;11581;51.250;6.778;2023-04-06T14:22:02;6.18;;;3.72;;
22829;SDS011;11581;51.250;6.778;2023-04-06T14:24:29;7.93;;;3.70;;
22829;SDS011;11581;51.250;6.778;2023-04-06T14:26:56;5.60;;;3.70;;
22829;SDS011;11581;51.250;6.778;2023-04-06T14:29:23;7.90;;;4.40;;
22829;SDS011;11581;51.250;6.778;2023-04-06T14:31:50;5.93;;;3.95;;
22829;SDS011;11581;51.250;6.778;2023-04-06T14:34:16;8.32;;;4.78;;
22829;SDS011;11581;51.250;6.778;2023-04-06T14:36:42;20.02;;;4.32;;
22829;SDS011;11581;51.250;6.778;2023-04-06T14:39:09;6.38;;;3.70;;
22829;SDS011;11581;51.250;6.778;2023-04-06T14:41:35;6.38;;;3.78;;
22829;SDS011;11581;51.250;6.778;2023-04-06T14:44:02;7.30;;;3.55;;
22829;SDS011;11581;51.250;6.778;2023-04-06T14:46:29;10.10;;;4.47;;
22829;SDS011;11581;51.250;6.778;2023-04-06T14:48:56;6.13;;;4.03;;
22829;SDS011;11581;51.250;6.778;2023-04-06T14:51:24;8.60;;;4.53;;
22829;SDS011;11581;51.250;6.778;2023-04-06T14:53:52;5.90;;;4.18;;
22829;SDS011;11581;51.250;6.778;2023-04-06T14:56:19;7.53;;;4.55;;
22829;SDS011;11581;51.250;6.778;2023-04-06T14:58:50;8.82;;;4.47;;
22829;SDS011;11581;51.250;6.778;2023-04-06T15:01:18;6.78;;;4.30;;
22829;SDS011;11581;51.250;6.778;2023-04-06T15:03:45;6.63;;;4.07;;
22829;SDS011;11581;51.250;6.778;2023-04-06T15:06:14;7.78;;;4.50;;